Weather at Hollands International Field

Public forecast

Using degrees Fahrenheit for public forecast. Weather courtesy of forecast.io.

Closest aviation weather report (METAR) to Hollands International Field

Closest report is Niagara Falls International Airport, 11.9 nm (22.0 km) SW.

2024/05/24 17:53 (retrieved 58 minutes ago)

KIAG 241753Z 26011G19KT 10SM BKN060 BKN075 25/11 A2987 RMK AO2 SLP113 T02500106 10261 20183 58003

Closest aviation forecast (TAF) to Hollands International Field

Closest forecast is Niagara Falls International Airport, 11.9 nm (22.0 km) SW.

2024/05/24 18:36 (retrieved 15 minutes ago)

TAF KIAG 241734Z 2418/2518 24010KT P6SM SKC FM250000 VRB03KT P6SM SKC FM250800 10007KT P6SM FEW250 FM251200 22013G21KT P6SM BKN200 FM251500 25013KT P6SM VCSH BKN060